Gambell, Alaska
Current Conditions -  °F | °C
As of 12:56 AM on Friday 28 Nov 2014 (Local Time) from PAGM Reporting Station
NA  
Wind Chill: 24°   Ceiling: NA
Heat Index: 36°   Visibility: 5mi
Dew Point: 32°   Wind: 24mph
Humidity: 87%   Direction: 130°SE
Pressure: 29.6"   Gusts: NA
Location:  63.78°N, 171.74°W
Report Text: PAGM 280956Z AUTO 13021KT 5SM 02/00 A2960 RMK AO1
Loading
Personal Weather Stations






























Interactive Weather Map New forecast layout! Learn more

10-Day Weather Forecast

Advertisements
Track Severe Weather on mobile